Hurghada, Egypt
Current Conditions -  °F | °C
As of 12:00 AM on Thursday 29 Jan 2015 (Local Time) from HEGN Reporting Station
Clear Clear  
Wind Chill: 63°   Ceiling: Unl
Heat Index: 63°   Visibility: 6mi
Dew Point: 41°   Wind: 10mph
Humidity: 45%   Direction: 300°WNW
Pressure: 29.91"   Gusts: NA
Location:  27.23°N, 33.83°E
Report Text: HEGN 282200Z 30009KT CAVOK 17/05 Q1013 NOSIG
Loading
Personal Weather Stations






























Interactive Weather Map New forecast layout! Learn more

10-Day Weather Forecast

Advertisements
Track Severe Weather on mobile